Time;durP1;ratioP1;P1;durP2;ratioP2;P2;SDS_P1;SDS_P2;PMS_P1;PMS_P2;Temp;Humidity;BMP_temperature;BMP_pressure;BME280_temperature;BME280_humidity;BME280_pressure;Samples;Min_cycle;Max_cycle;Signal;HPM_P1;HPM_P2
2022/01/21 00:02:03;;;;;;;4.82;1.83;;;;;;;-2.13;68.79;101778.81;7397802;19;20027;-65
2022/01/21 00:04:31;;;;;;;4.20;1.42;;;;;;;-2.16;68.34;101783.81;7399132;19;20019;-65
2022/01/21 00:06:59;;;;;;;13.77;1.95;;;;;;;-2.19;68.70;101807.69;7399102;19;20040;-65
2022/01/21 00:09:27;;;;;;;6.88;1.60;;;;;;;-2.20;69.38;101775.09;7400179;19;20015;-65
2022/01/21 00:11:56;;;;;;;7.68;1.45;;;;;;;-2.22;70.25;101784.41;7400096;19;20018;-66
2022/01/21 00:14:24;;;;;;;7.20;1.50;;;;;;;-2.24;68.20;101790.28;7400046;19;20018;-66
2022/01/21 00:16:52;;;;;;;7.75;1.75;;;;;;;-2.28;67.68;101788.38;7398938;19;20074;-66
2022/01/21 00:19:25;;;;;;;7.72;1.50;;;;;;;-2.28;67.99;101783.25;7399821;19;20014;-66
2022/01/21 00:30:17;;;;;;;6.40;1.85;;;;;;;-2.39;68.16;101800.72;7402275;19;20374;-67
2022/01/21 00:32:47;;;;;;;3.35;1.23;;;;;;;-2.40;68.36;101799.84;7401311;19;20421;-64
2022/01/21 00:35:20;;;;;;;7.75;1.45;;;;;;;-2.48;68.56;101796.00;7399813;19;20036;-66
2022/01/21 00:37:49;;;;;;;2.10;1.17;;;;;;;-2.42;68.40;101809.16;7397564;19;20014;-66
2022/01/21 00:40:23;;;;;;;5.40;1.55;;;;;;;-2.44;67.98;101813.34;7399240;19;20011;-66
2022/01/21 00:45:32;;;;;;;5.38;1.40;;;;;;;-2.45;68.50;101837.31;7395625;19;20006;-65
2022/01/21 00:48:00;;;;;;;5.90;1.60;;;;;;;-2.47;67.55;101834.63;7397050;19;20018;-66
2022/01/21 00:50:31;;;;;;;5.20;1.25;;;;;;;-2.46;68.98;101827.81;7398925;19;20015;-66
2022/01/21 00:52:59;;;;;;;5.38;1.55;;;;;;;-2.48;67.48;101843.16;7399755;19;20019;-66
2022/01/21 00:55:28;;;;;;;6.03;1.20;;;;;;;-2.47;67.79;101838.91;7398793;19;20015;-66
2022/01/21 00:57:56;;;;;;;6.05;1.23;;;;;;;-2.47;67.53;101839.78;7396838;19;20014;-66
2022/01/21 01:00:24;;;;;;;7.15;1.30;;;;;;;-2.47;67.53;101849.19;7398536;19;20010;-66
2022/01/21 01:02:52;;;;;;;4.13;1.63;;;;;;;-2.47;68.03;101842.34;7396552;19;20019;-66
2022/01/21 01:05:21;;;;;;;6.75;1.35;;;;;;;-2.47;69.40;101844.03;7398021;19;20482;-66
2022/01/21 01:07:53;;;;;;;5.82;1.40;;;;;;;-2.50;67.50;101829.34;7396272;19;20467;-67
2022/01/21 01:10:34;;;;;;;5.45;1.00;;;;;;;-2.54;68.39;101835.16;7399471;19;20019;-66
2022/01/21 01:19:54;;;;;;;6.18;1.50;;;;;;;-2.50;67.79;101849.91;7398596;19;20010;-65
2022/01/21 01:21:13;;;;;;;5.57;1.85;;;;;;;-2.51;67.51;101857.56;7397879;19;20483;-65
2022/01/21 01:24:03;;;;;;;6.07;1.77;;;;;;;-2.51;67.09;101867.84;7397878;19;20018;-67
2022/01/21 01:29:13;;;;;;;7.05;1.20;;;;;;;-2.53;66.76;101875.44;7397693;19;20490;-65
2022/01/21 01:31:41;;;;;;;4.55;1.38;;;;;;;-2.52;67.08;101866.94;7397444;19;20019;-65
2022/01/21 01:34:09;;;;;;;5.40;1.80;;;;;;;-2.52;68.29;101874.63;7397496;19;20028;-66
2022/01/21 01:36:38;;;;;;;8.63;1.25;;;;;;;-2.54;66.94;101895.94;7396708;19;20018;-66
2022/01/21 01:39:14;;;;;;;7.55;1.02;;;;;;;-2.53;67.37;101887.41;7397339;19;20010;-66
2022/01/21 01:41:48;;;;;;;4.72;1.65;;;;;;;-2.53;68.26;101885.72;7396999;19;20015;-66
2022/01/21 01:49:38;;;;;;;2.35;1.30;;;;;;;-2.56;67.05;101875.31;7397035;19;20022;-66
2022/01/21 01:52:09;;;;;;;9.10;1.83;;;;;;;-2.56;67.00;101872.72;7396848;19;20035;-66
2022/01/21 01:54:43;;;;;;;6.97;1.55;;;;;;;-2.57;67.31;101864.94;7396993;19;20018;-66
2022/01/21 01:57:12;;;;;;;7.88;1.92;;;;;;;-2.58;67.24;101866.63;7395931;19;20018;-66
2022/01/21 01:59:40;;;;;;;9.50;1.50;;;;;;;-2.58;66.95;101871.75;7396536;19;20018;-66
2022/01/21 02:02:12;;;;;;;7.57;2.60;;;;;;;-2.60;66.90;101860.53;7395681;19;20014;-66
2022/01/21 02:04:42;;;;;;;9.98;1.67;;;;;;;-2.61;67.65;101866.47;7397621;19;20031;-67
2022/01/21 02:07:11;;;;;;;5.45;1.27;;;;;;;-2.62;67.35;101864.72;7397002;19;20018;-66
2022/01/21 02:09:42;;;;;;;5.28;1.52;;;;;;;-2.63;69.00;101857.81;7397314;19;20011;-67
2022/01/21 02:12:12;;;;;;;5.95;1.10;;;;;;;-2.65;68.02;101860.31;7396527;19;20019;-67
2022/01/21 02:14:48;;;;;;;6.72;1.40;;;;;;;-2.63;67.23;101862.94;7397562;19;20372;-66
2022/01/21 02:21:28;;;;;;;5.72;1.80;;;;;;;-2.65;66.39;101864.56;7395294;19;20018;-66
2022/01/21 02:22:51;;;;;;;3.83;0.98;;;;;;;-2.64;66.64;101864.66;7394154;19;20010;-67
2022/01/21 02:25:21;;;;;;;11.93;3.30;;;;;;;-2.68;67.05;101857.59;7395140;19;20014;-67
2022/01/21 02:27:51;;;;;;;8.00;1.52;;;;;;;-2.66;67.89;101862.81;7393946;19;20040;-68
2022/01/21 02:30:22;;;;;;;4.45;1.35;;;;;;;-2.66;67.70;101860.22;7395361;19;20500;-68
2022/01/21 02:32:52;;;;;;;5.78;1.60;;;;;;;-2.66;66.77;101870.50;7396035;19;20021;-67
2022/01/21 02:35:22;;;;;;;5.43;1.17;;;;;;;-2.72;67.80;101859.91;7395589;19;20018;-68
2022/01/21 02:37:53;;;;;;;2.50;1.40;;;;;;;-2.67;67.22;101882.44;7393569;19;20508;-68
2022/01/21 02:40:22;;;;;;;5.97;1.25;;;;;;;-2.70;66.64;101877.19;7395856;19;20026;-68
2022/01/21 02:42:50;;;;;;;5.28;1.30;;;;;;;-2.70;67.80;101866.03;7394129;19;20019;-67
2022/01/21 02:45:18;;;;;;;8.85;1.33;;;;;;;-2.72;66.93;101860.78;7393905;19;20011;-68
2022/01/21 02:47:47;;;;;;;1.92;1.08;;;;;;;-2.70;68.71;101861.75;7393397;19;20501;-67
2022/01/21 02:50:16;;;;;;;5.50;1.50;;;;;;;-2.71;68.17;101852.28;7395347;19;20018;-68
2022/01/21 02:52:55;;;;;;;7.55;1.02;;;;;;;-2.70;66.39;101873.75;7394721;19;20362;-67
2022/01/21 02:55:27;;;;;;;6.45;1.30;;;;;;;-2.71;66.71;101865.13;7395404;19;20010;-66
2022/01/21 02:57:55;;;;;;;1.70;1.50;;;;;;;-2.70;67.04;101873.75;7393855;19;20018;-66
2022/01/21 03:00:24;;;;;;;3.67;1.50;;;;;;;-2.72;67.10;101863.34;7394915;19;20018;-66
2022/01/21 03:02:52;;;;;;;7.35;1.20;;;;;;;-2.72;68.14;101868.50;7393491;19;20027;-67
2022/01/21 03:05:21;;;;;;;8.48;1.60;;;;;;;-2.74;67.15;101879.50;7394774;19;20015;-67
2022/01/21 03:07:50;;;;;;;5.10;1.65;;;;;;;-2.76;66.95;101883.69;7393141;19;20029;-66
2022/01/21 03:10:19;;;;;;;4.63;1.65;;;;;;;-2.77;68.02;101887.94;7394575;19;20015;-66
2022/01/21 03:12:49;;;;;;;8.48;1.73;;;;;;;-2.79;67.65;101879.28;7395020;19;20023;-66
2022/01/21 03:15:18;;;;;;;3.47;1.13;;;;;;;-2.79;68.13;101881.84;7396262;19;20018;-67
2022/01/21 03:17:46;;;;;;;6.55;1.23;;;;;;;-2.81;67.60;101880.88;7394582;19;20018;-67
2022/01/21 03:20:14;;;;;;;8.52;1.55;;;;;;;-2.83;66.91;101891.09;7395430;19;20015;-67
2022/01/21 03:22:43;;;;;;;5.30;1.27;;;;;;;-2.86;66.63;101901.19;7393601;19;20010;-67
2022/01/21 03:25:12;;;;;;;6.38;1.20;;;;;;;-2.88;66.73;101905.38;7394128;19;20015;-67
2022/01/21 03:27:40;;;;;;;5.78;1.33;;;;;;;-2.87;66.95;101909.72;7392570;19;20018;-66
2022/01/21 03:30:13;;;;;;;4.00;1.67;;;;;;;-2.92;67.46;101900.00;7393977;19;20032;-65
2022/01/21 03:32:41;;;;;;;8.88;1.38;;;;;;;-2.88;67.72;101910.53;7394834;19;20015;-66
2022/01/21 03:35:10;;;;;;;3.50;1.52;;;;;;;-2.90;67.09;101924.94;7394593;19;20031;-65
2022/01/21 03:37:38;;;;;;;5.40;1.80;;;;;;;-2.88;68.54;101914.75;7395252;19;20014;-66
2022/01/21 03:40:08;;;;;;;5.00;1.00;;;;;;;-2.89;67.43;101912.97;7401242;19;20011;-66
2022/01/21 03:42:36;;;;;;;4.28;1.45;;;;;;;-2.89;67.93;101936.09;7399741;19;20031;-65
2022/01/21 03:45:05;;;;;;;7.72;1.60;;;;;;;-2.96;66.93;101917.81;7399419;19;20476;-66
2022/01/21 03:47:36;;;;;;;4.28;1.30;;;;;;;-2.89;68.36;101929.28;7399161;19;20014;-66
2022/01/21 03:50:19;;;;;;;2.90;1.42;;;;;;;-2.90;68.62;101924.94;7401313;19;20014;-65
2022/01/21 03:52:54;;;;;;;10.65;3.00;;;;;;;-2.91;66.76;101923.19;7401237;19;20010;-66
2022/01/21 03:55:22;;;;;;;3.78;1.10;;;;;;;-2.90;68.38;101929.22;7400623;19;20014;-65
2022/01/21 03:57:51;;;;;;;5.32;1.98;;;;;;;-2.93;67.72;101940.22;7398116;19;20488;-66
2022/01/21 04:00:22;;;;;;;5.78;1.20;;;;;;;-2.95;66.81;101939.25;7400510;19;20018;-66
2022/01/21 04:02:54;;;;;;;6.85;1.70;;;;;;;-2.97;67.37;101943.41;7399571;19;20018;-66
2022/01/21 04:05:22;;;;;;;3.80;1.20;;;;;;;-2.99;65.68;101934.75;7400728;19;20037;-65
2022/01/21 04:07:51;;;;;;;7.70;1.50;;;;;;;-2.99;66.42;101947.59;7397773;19;20479;-66
2022/01/21 04:10:19;;;;;;;5.72;1.38;;;;;;;-2.99;66.91;101950.16;7399694;19;20483;-66
2022/01/21 04:12:47;;;;;;;5.47;1.00;;;;;;;-2.99;65.88;101945.03;7400162;19;20011;-66
2022/01/21 04:15:16;;;;;;;3.30;1.30;;;;;;;-3.02;66.13;101947.41;7400006;19;20028;-65
2022/01/21 04:17:44;;;;;;;9.43;1.70;;;;;;;-3.04;66.57;101944.78;7397702;19;20022;-65
2022/01/21 04:20:16;;;;;;;4.28;1.50;;;;;;;-3.07;65.84;101941.16;7399891;19;20018;-66
2022/01/21 04:22:45;;;;;;;5.63;1.45;;;;;;;-3.07;66.13;101943.72;7398491;19;20509;-66
2022/01/21 04:25:13;;;;;;;8.57;2.67;;;;;;;-3.08;66.49;101939.38;7399611;19;20018;-65
2022/01/21 04:27:41;;;;;;;8.57;1.67;;;;;;;-3.09;65.74;101937.63;7397808;19;20014;-65
2022/01/21 04:30:12;;;;;;;9.75;2.88;;;;;;;-3.11;66.06;101950.38;7399514;19;20032;-66
2022/01/21 04:32:40;;;;;;;7.30;2.58;;;;;;;-3.12;65.83;101938.38;7399174;19;20018;-66
2022/01/21 04:35:09;;;;;;;3.92;1.30;;;;;;;-3.14;65.66;101938.25;7399511;19;20030;-66
2022/01/21 04:37:47;;;;;;;7.40;2.60;;;;;;;-3.16;65.48;101933.84;7397419;19;20025;-66
2022/01/21 04:40:18;;;;;;;3.58;2.40;;;;;;;-3.20;66.25;101922.53;7399483;19;20022;-65
2022/01/21 04:48:08;;;;;;;5.28;1.20;;;;;;;-3.22;66.58;101931.84;7394571;19;20011;-65
2022/01/21 04:50:51;;;;;;;7.63;1.50;;;;;;;-3.23;66.27;101932.63;7397895;19;20019;-66
2022/01/21 04:53:22;;;;;;;7.60;2.03;;;;;;;-3.24;66.62;101938.56;7399478;19;20015;-66
2022/01/21 04:55:51;;;;;;;9.43;1.98;;;;;;;-3.25;67.39;101929.09;7399480;19;20027;-66
2022/01/21 04:58:19;;;;;;;4.38;2.15;;;;;;;-3.27;66.67;101934.16;7396365;19;20022;-66
2022/01/21 05:00:47;;;;;;;7.55;2.05;;;;;;;-3.31;66.77;101929.66;7398305;19;20015;-65
2022/01/21 05:03:17;;;;;;;9.93;1.88;;;;;;;-3.34;66.05;101946.56;7397347;19;20036;-65
2022/01/21 05:05:45;;;;;;;7.25;1.80;;;;;;;-3.35;66.86;101931.97;7397662;19;20378;-66
2022/01/21 05:08:23;;;;;;;5.72;1.50;;;;;;;-3.38;66.16;101935.25;7399275;19;20014;-66
2022/01/21 05:10:54;;;;;;;1.55;0.93;;;;;;;-3.38;66.75;101932.69;7401035;19;20031;-66
2022/01/21 05:13:26;;;;;;;7.20;1.35;;;;;;;-3.42;67.19;101909.34;7398618;19;20024;-65
2022/01/21 05:16:05;;;;;;;1.65;1.23;;;;;;;-3.39;67.11;101927.47;7397902;19;20425;-66
2022/01/21 05:18:33;;;;;;;3.08;1.02;;;;;;;-3.41;66.29;101932.53;7397958;19;20017;-65
2022/01/21 05:21:02;;;;;;;2.78;1.10;;;;;;;-3.41;66.49;101931.63;7397315;19;20019;-65
2022/01/21 05:23:37;;;;;;;5.45;1.13;;;;;;;-3.42;67.10;101924.72;7396040;19;20014;-65
2022/01/21 05:26:08;;;;;;;6.18;1.33;;;;;;;-3.44;66.46;101930.69;7397480;19;20019;-64
2022/01/21 05:28:36;;;;;;;4.80;1.50;;;;;;;-3.44;66.43;101928.13;7397074;19;20022;-65
2022/01/21 05:31:04;;;;;;;5.10;1.58;;;;;;;-3.43;67.31;101923.88;7396922;19;20015;-65
2022/01/21 05:33:32;;;;;;;5.07;1.40;;;;;;;-3.43;66.79;101926.44;7395931;19;20377;-65
2022/01/21 05:36:00;;;;;;;2.33;0.93;;;;;;;-3.42;66.57;101927.28;7395979;19;20027;-65
2022/01/21 05:38:28;;;;;;;5.88;1.42;;;;;;;-3.41;67.55;101921.38;7395857;19;20490;-65
2022/01/21 05:40:57;;;;;;;7.05;1.27;;;;;;;-3.41;66.45;101923.94;7397238;19;20039;-65
2022/01/21 05:43:28;;;;;;;5.80;1.30;;;;;;;-3.40;67.00;101920.56;7395601;19;20014;-65
2022/01/21 05:48:37;;;;;;;3.15;0.90;;;;;;;-3.38;66.99;101927.56;7396889;19;20010;-65
2022/01/21 05:51:05;;;;;;;3.60;1.20;;;;;;;-3.39;66.44;101927.47;7396636;19;20028;-65
2022/01/21 05:53:33;;;;;;;7.15;2.17;;;;;;;-3.37;67.69;101918.19;7395931;19;20023;-64
2022/01/21 05:56:02;;;;;;;6.53;1.65;;;;;;;-3.36;67.62;101914.81;7395624;19;20019;-64
2022/01/21 05:58:33;;;;;;;9.18;1.95;;;;;;;-3.36;67.93;101917.38;7395905;19;20027;-64
2022/01/21 06:01:02;;;;;;;2.83;1.10;;;;;;;-3.36;66.33;101922.50;7392242;19;20011;-65
2022/01/21 06:03:30;;;;;;;3.25;1.30;;;;;;;-3.36;67.33;101919.94;7393884;19;20503;-64
2022/01/21 06:05:58;;;;;;;8.77;2.35;;;;;;;-3.35;66.64;101925.19;7395350;19;20021;-65
2022/01/21 06:08:27;;;;;;;4.40;1.67;;;;;;;-3.42;67.38;101907.66;7393833;19;20506;-64
2022/01/21 06:10:55;;;;;;;5.15;1.67;;;;;;;-3.34;67.56;101921.78;7395529;19;20015;-65
2022/01/21 06:13:23;;;;;;;7.65;1.75;;;;;;;-3.35;66.84;101930.31;7395004;19;20032;-65
2022/01/21 06:15:55;;;;;;;3.45;1.30;;;;;;;-3.35;66.89;101922.59;7393838;19;20337;-63
2022/01/21 06:18:23;;;;;;;6.03;1.60;;;;;;;-3.35;67.17;101920.03;7393275;19;20039;-64
2022/01/21 06:20:51;;;;;;;7.07;1.77;;;;;;;-3.35;68.97;101919.13;7395506;19;20014;-64
2022/01/21 06:23:19;;;;;;;4.55;1.83;;;;;;;-3.34;67.79;101926.03;7394015;19;20531;-65
2022/01/21 06:25:48;;;;;;;5.97;1.50;;;;;;;-3.38;67.65;101924.13;7394908;19;20019;-66
2022/01/21 06:28:16;;;;;;;5.32;1.40;;;;;;;-3.37;68.72;101921.63;7394426;19;20022;-65
2022/01/21 06:30:44;;;;;;;6.75;1.40;;;;;;;-3.36;68.85;101930.19;7395686;19;20018;-66
2022/01/21 06:33:15;;;;;;;8.13;1.40;;;;;;;-3.35;68.58;101930.31;7394751;19;20515;-65
2022/01/21 06:35:43;;;;;;;4.88;2.00;;;;;;;-3.41;68.81;101932.53;7394501;19;20018;-65
2022/01/21 06:38:11;;;;;;;2.05;1.30;;;;;;;-3.37;68.92;101928.47;7393404;19;20031;-66
2022/01/21 06:40:40;;;;;;;6.55;1.60;;;;;;;-3.41;69.68;101927.41;7394212;19;20028;-66
2022/01/21 06:43:08;;;;;;;7.43;1.75;;;;;;;-3.37;69.12;101938.72;7394486;19;20027;-66
2022/01/21 06:45:36;;;;;;;8.73;1.60;;;;;;;-3.38;70.29;101926.69;7393530;19;20033;-65
2022/01/21 06:48:05;;;;;;;8.75;2.35;;;;;;;-3.36;70.20;101919.94;7393120;19;20479;-66
2022/01/21 06:50:39;;;;;;;8.18;2.10;;;;;;;-3.36;70.82;101927.63;7394752;19;20475;-66
2022/01/21 06:53:07;;;;;;;9.07;1.88;;;;;;;-3.39;71.32;101914.66;7395547;19;20019;-66
2022/01/21 06:55:36;;;;;;;7.63;1.60;;;;;;;-3.38;71.46;101912.16;7394247;19;20087;-66
2022/01/21 06:58:04;;;;;;;6.32;1.70;;;;;;;-3.32;71.94;101912.50;7393010;19;20021;-66
2022/01/21 07:00:33;;;;;;;6.43;1.63;;;;;;;-3.30;72.55;101912.56;7394174;19;20377;-66
2022/01/21 07:03:01;;;;;;;12.68;2.20;;;;;;;-3.28;73.22;101916.97;7394684;19;20011;-66
2022/01/21 07:05:30;;;;;;;7.43;1.48;;;;;;;-3.24;73.29;101920.59;7394534;19;20412;-66
2022/01/21 07:08:01;;;;;;;7.68;2.55;;;;;;;-3.31;73.50;101909.13;7392543;19;20022;-66
2022/01/21 07:10:30;;;;;;;12.82;2.30;;;;;;;-3.22;74.04;101931.84;7394922;19;20070;-66
2022/01/21 07:12:59;;;;;;;5.95;1.90;;;;;;;-3.21;74.10;101925.00;7399035;19;20014;-66
2022/01/21 07:15:27;;;;;;;7.72;2.67;;;;;;;-3.25;74.67;101918.81;7401947;19;20018;-66
2022/01/21 07:17:55;;;;;;;8.07;3.00;;;;;;;-3.19;75.61;101939.69;7399408;19;20026;-66
2022/01/21 07:20:24;;;;;;;10.65;4.15;;;;;;;-3.23;75.45;101924.94;7401068;19;20022;-66
2022/01/21 07:22:52;;;;;;;15.77;4.82;;;;;;;-3.14;75.83;101942.53;7401235;19;20028;-66
2022/01/21 07:25:23;;;;;;;9.38;4.05;;;;;;;-3.14;75.89;101938.25;7400088;19;20014;-67
2022/01/21 07:27:52;;;;;;;8.65;2.63;;;;;;;-3.12;76.38;101936.66;7399309;19;20015;-65
2022/01/21 07:30:20;;;;;;;13.77;3.30;;;;;;;-3.11;76.31;101938.44;7401392;19;20014;-65
2022/01/21 07:32:49;;;;;;;14.00;3.30;;;;;;;-3.11;77.00;101941.00;7401473;19;20014;-65
2022/01/21 07:35:17;;;;;;;15.88;2.95;;;;;;;-3.08;76.95;101941.94;7401107;19;20026;-64
2022/01/21 07:37:46;;;;;;;10.00;2.47;;;;;;;-3.06;77.24;101942.94;7398455;19;20038;-64
2022/01/21 07:40:14;;;;;;;15.55;3.97;;;;;;;-3.04;77.13;101947.34;7399394;19;20479;-65
2022/01/21 07:42:45;;;;;;;15.57;3.10;;;;;;;-3.03;77.51;101956.81;7400956;19;20018;-65
2022/01/21 07:45:13;;;;;;;16.92;2.92;;;;;;;-3.01;77.64;101951.75;7397809;19;20006;-65
2022/01/21 07:47:42;;;;;;;15.40;3.50;;;;;;;-2.99;77.80;101963.00;7398166;19;20734;-64
2022/01/21 07:50:10;;;;;;;11.35;3.08;;;;;;;-2.97;78.07;101963.94;7400910;19;20018;-65
2022/01/21 07:52:38;;;;;;;11.65;3.58;;;;;;;-2.96;78.60;101961.47;7400838;19;20022;-65
2022/01/21 07:55:08;;;;;;;11.10;3.53;;;;;;;-2.92;78.30;101959.06;7400469;19;20014;-66
2022/01/21 07:57:36;;;;;;;15.82;4.38;;;;;;;-2.90;78.30;101955.78;7398432;19;20031;-66
2022/01/21 08:00:09;;;;;;;9.70;2.85;;;;;;;-2.88;78.46;101959.31;7400348;19;20014;-66
2022/01/21 08:02:37;;;;;;;11.23;3.03;;;;;;;-2.87;78.63;101961.09;7400277;19;20015;-66
2022/01/21 08:05:06;;;;;;;11.40;3.75;;;;;;;-2.83;78.66;101967.25;7397646;19;20024;-65
2022/01/21 08:07:34;;;;;;;12.13;3.15;;;;;;;-2.82;79.04;101980.19;7398273;19;20011;-66
2022/01/21 08:10:02;;;;;;;7.28;2.45;;;;;;;-2.79;78.98;101969.19;7399954;19;20014;-66
2022/01/21 08:12:30;;;;;;;7.20;2.65;;;;;;;-2.76;79.01;101963.34;7399667;19;20018;-66
2022/01/21 08:14:59;;;;;;;11.15;2.75;;;;;;;-2.73;79.24;101964.38;7399720;19;20483;-66
2022/01/21 08:17:30;;;;;;;9.60;3.20;;;;;;;-2.70;79.37;101961.09;7398500;19;20031;-64
2022/01/21 08:19:59;;;;;;;10.32;2.65;;;;;;;-2.67;79.81;101961.22;7400069;19;20014;-65
2022/01/21 08:22:28;;;;;;;8.98;2.75;;;;;;;-2.64;79.93;101961.41;7399577;19;20082;-65
2022/01/21 08:24:57;;;;;;;12.48;2.47;;;;;;;-2.60;80.29;101970.13;7395155;19;20018;-66
2022/01/21 08:27:25;;;;;;;15.60;3.25;;;;;;;-2.58;80.34;101978.81;7398285;19;20022;-66
2022/01/21 08:29:53;;;;;;;12.52;3.22;;;;;;;-2.53;80.27;101979.94;7399555;19;20015;-66
2022/01/21 08:32:22;;;;;;;14.23;3.00;;;;;;;-2.50;80.45;101975.84;7399658;19;20011;-65
2022/01/21 08:35:00;;;;;;;8.38;2.53;;;;;;;-2.45;80.62;101986.38;7398556;19;20021;-65
2022/01/21 08:37:28;;;;;;;16.13;3.03;;;;;;;-2.41;80.79;101992.53;7397766;19;20022;-65
2022/01/21 08:39:56;;;;;;;14.52;2.78;;;;;;;-2.37;80.76;101989.31;7399210;19;20014;-66
2022/01/21 08:42:24;;;;;;;11.68;2.75;;;;;;;-2.32;80.65;101993.00;7398891;19;20014;-65
2022/01/21 08:44:52;;;;;;;14.50;2.88;;;;;;;-2.28;80.84;101994.06;7396563;19;20031;-66
2022/01/21 08:47:22;;;;;;;13.32;3.28;;;;;;;-2.23;80.85;101995.16;7397413;19;20023;-64
2022/01/21 08:49:51;;;;;;;14.10;2.55;;;;;;;-2.19;80.87;101990.25;7398650;19;20010;-64
2022/01/21 08:52:26;;;;;;;14.45;2.67;;;;;;;-2.16;80.77;101987.84;7398591;19;20037;-65
2022/01/21 08:54:54;;;;;;;17.10;4.22;;;;;;;-2.09;80.92;101998.44;7398991;19;20025;-64
2022/01/21 08:57:22;;;;;;;15.30;4.47;;;;;;;-2.05;80.89;101997.78;7397278;19;20031;-65
2022/01/21 08:59:50;;;;;;;17.33;2.90;;;;;;;-2.01;81.14;101995.44;7398179;19;20027;-64
2022/01/21 09:02:19;;;;;;;12.30;3.17;;;;;;;-1.97;81.17;101983.63;7398124;19;20014;-65
2022/01/21 09:04:47;;;;;;;12.00;2.75;;;;;;;-1.91;81.19;101993.31;7396135;19;20031;-65
2022/01/21 09:07:15;;;;;;;14.68;3.28;;;;;;;-1.89;81.07;101984.88;7396982;19;20014;-65
2022/01/21 09:09:46;;;;;;;19.08;3.47;;;;;;;-1.85;81.22;101997.06;7398136;19;20010;-66
2022/01/21 09:12:14;;;;;;;15.18;3.78;;;;;;;-1.80;81.22;101966.44;7398656;19;20015;-65
2022/01/21 09:14:42;;;;;;;32.33;3.92;;;;;;;-1.75;81.35;101979.53;7398142;19;20011;-66
2022/01/21 09:17:10;;;;;;;14.73;3.13;;;;;;;-1.71;81.16;101984.88;7396260;19;20015;-65
2022/01/21 09:19:39;;;;;;;13.55;3.20;;;;;;;-1.66;81.54;101987.69;7397183;19;20031;-64
2022/01/21 09:22:07;;;;;;;11.50;3.10;;;;;;;-1.60;81.48;101992.25;7397352;19;20014;-65
2022/01/21 09:24:36;;;;;;;11.38;2.58;;;;;;;-1.55;81.42;101986.50;7396544;19;20010;-65
2022/01/21 09:27:07;;;;;;;11.15;2.80;;;;;;;-1.50;81.20;101994.47;7397005;19;20031;-66
2022/01/21 09:29:36;;;;;;;12.88;2.63;;;;;;;-1.44;81.27;101988.69;7398186;19;20362;-67
2022/01/21 09:32:07;;;;;;;23.05;3.97;;;;;;;-1.39;81.48;101993.28;7396884;19;20018;-65
2022/01/21 09:34:35;;;;;;;16.50;3.15;;;;;;;-1.34;80.94;102001.19;7397160;19;20015;-66
2022/01/21 09:37:05;;;;;;;14.75;2.60;;;;;;;-1.31;80.70;101994.50;7395734;19;20414;-64
2022/01/21 09:39:33;;;;;;;15.90;3.20;;;;;;;-1.24;80.88;102003.41;7396815;19;20024;-66
2022/01/21 09:42:03;;;;;;;19.25;4.72;;;;;;;-1.18;80.80;102006.25;7396429;19;20018;-66
2022/01/21 09:44:34;;;;;;;18.20;4.20;;;;;;;-1.13;80.40;101996.19;7396398;19;20015;-65
2022/01/21 09:47:11;;;;;;;12.55;2.92;;;;;;;-1.14;79.74;101994.41;7394290;19;20018;-65
2022/01/21 09:49:46;;;;;;;14.10;3.10;;;;;;;-1.06;79.45;102020.50;7395852;19;20476;-65
2022/01/21 09:52:19;;;;;;;16.63;3.40;;;;;;;-1.02;79.49;102012.16;7396165;19;20344;-65
2022/01/21 09:54:48;;;;;;;15.68;3.30;;;;;;;-0.98;79.27;102011.47;7397226;19;20027;-65
2022/01/21 09:57:21;;;;;;;15.32;3.38;;;;;;;-0.94;79.49;102003.06;7395438;19;20014;-66
2022/01/21 09:59:55;;;;;;;9.93;2.83;;;;;;;-0.92;79.15;102003.13;7396053;19;20479;-66
2022/01/21 10:02:28;;;;;;;16.70;3.45;;;;;;;-0.88;79.08;101989.59;7396772;19;20018;-65
2022/01/21 10:04:59;;;;;;;16.33;3.70;;;;;;;-0.85;79.56;101998.34;7396196;19;20014;-65
2022/01/21 10:07:28;;;;;;;12.48;2.60;;;;;;;-0.83;78.94;102001.84;7395621;19;20046;-65
2022/01/21 10:09:56;;;;;;;9.13;2.67;;;;;;;-0.78;78.73;101988.28;7396379;19;20023;-66
2022/01/21 10:12:25;;;;;;;17.27;3.17;;;;;;;-0.74;78.35;101998.81;7396179;19;20028;-66
2022/01/21 10:14:57;;;;;;;11.52;3.33;;;;;;;-0.75;78.47;101960.94;7395279;19;20014;-66
2022/01/21 10:17:25;;;;;;;10.95;3.33;;;;;;;-0.66;77.63;101978.53;7394825;19;20019;-66
2022/01/21 10:19:53;;;;;;;15.18;2.90;;;;;;;-0.62;77.45;101977.88;7395386;19;20479;-66
2022/01/21 10:22:26;;;;;;;10.57;4.35;;;;;;;-0.59;77.55;101972.84;7395622;19;20023;-66
2022/01/21 10:24:58;;;;;;;11.88;3.33;;;;;;;-0.53;77.51;101980.84;7394982;19;20027;-66
2022/01/21 10:27:27;;;;;;;10.38;2.58;;;;;;;-0.51;76.94;101974.03;7394188;19;20010;-65
2022/01/21 10:30:00;;;;;;;14.70;3.28;;;;;;;-0.47;76.65;101992.22;7394848;19;20037;-66
2022/01/21 10:32:36;;;;;;;10.40;2.95;;;;;;;-0.43;77.23;101979.53;7394743;19;20169;-66
2022/01/21 10:35:05;;;;;;;15.55;3.38;;;;;;;-0.37;77.09;101982.41;7394344;19;20025;-65
2022/01/21 10:37:36;;;;;;;13.55;2.33;;;;;;;-0.36;75.99;101991.88;7393178;19;20040;-66
2022/01/21 10:40:11;;;;;;;8.80;2.80;;;;;;;-0.31;76.09;101991.22;7394714;19;20074;-65
2022/01/21 10:42:40;;;;;;;10.23;2.55;;;;;;;-0.28;76.14;101984.47;7394574;19;20015;-66
2022/01/21 10:45:12;;;;;;;16.08;3.33;;;;;;;-0.24;76.93;101988.06;7393575;19;20046;-67
2022/01/21 10:47:42;;;;;;;20.27;3.60;;;;;;;-0.22;74.73;101995.03;7400956;19;20014;-66
2022/01/21 10:50:13;;;;;;;14.25;3.38;;;;;;;-0.19;75.00;101995.19;7409169;19;20014;-66
2022/01/21 10:52:51;;;;;;;13.02;2.67;;;;;;;-0.18;73.21;101999.53;7409383;19;20021;-65
2022/01/21 10:55:31;;;;;;;9.70;3.40;;;;;;;-0.10;73.86;101998.94;7409133;19;20044;-65
2022/01/21 10:58:11;;;;;;;9.05;2.28;;;;;;;-0.07;72.20;102001.69;7407239;19;20081;-65
2022/01/21 11:01:00;;;;;;;13.60;2.30;;;;;;;-0.02;73.17;101989.84;7408729;19;20347;-64
2022/01/21 11:03:31;;;;;;;11.70;3.08;;;;;;;0.02;73.12;101991.72;7408667;19;20343;-66
2022/01/21 11:06:12;;;;;;;13.13;2.85;;;;;;;0.06;72.31;101996.19;7406629;19;20483;-66
2022/01/21 11:08:40;;;;;;;8.93;2.80;;;;;;;0.09;73.12;101988.59;7408570;19;20382;-66
2022/01/21 11:11:08;;;;;;;10.05;2.78;;;;;;;0.13;73.23;101987.03;7407748;19;20031;-66
2022/01/21 11:13:40;;;;;;;10.95;4.10;;;;;;;0.16;72.07;102010.38;7408456;19;20014;-64
2022/01/21 11:16:25;;;;;;;19.92;3.90;;;;;;;0.20;72.05;101996.75;7408877;19;20035;-65
2022/01/21 11:18:58;;;;;;;10.80;3.50;;;;;;;0.24;72.94;102002.94;7409289;19;20035;-65
2022/01/21 11:21:51;;;;;;;10.20;3.13;;;;;;;0.27;68.53;102003.09;7408565;19;20029;-65
2022/01/21 11:24:21;;;;;;;10.80;1.92;;;;;;;0.31;68.00;102010.13;7407777;19;20026;-65
2022/01/21 11:27:07;;;;;;;12.05;3.28;;;;;;;0.36;67.83;101998.28;7408134;19;20028;-67
2022/01/21 11:29:36;;;;;;;10.13;2.35;;;;;;;0.42;68.62;101995.06;7408747;19;20011;-67
2022/01/21 11:32:08;;;;;;;14.50;2.50;;;;;;;0.47;70.53;102006.47;7407365;19;20018;-66
2022/01/21 11:34:37;;;;;;;10.65;3.15;;;;;;;0.50;71.68;102008.28;7407796;19;20023;-66
2022/01/21 11:37:07;;;;;;;10.35;2.95;;;;;;;0.44;70.54;102001.16;7405857;19;20434;-66
2022/01/21 11:39:37;;;;;;;7.57;2.22;;;;;;;0.46;69.71;101992.66;7407358;19;20475;-66
2022/01/21 11:42:08;;;;;;;12.65;2.38;;;;;;;0.46;70.63;102005.56;7407931;19;20040;-65
2022/01/21 11:44:39;;;;;;;13.18;2.90;;;;;;;0.47;70.13;101993.56;7407905;19;20043;-65
2022/01/21 11:47:28;;;;;;;13.00;2.05;;;;;;;0.48;69.35;101998.78;7406079;19;20031;-65
2022/01/21 11:49:59;;;;;;;10.30;2.33;;;;;;;0.52;69.82;102004.06;7408550;19;20032;-66
2022/01/21 11:52:28;;;;;;;7.18;1.75;;;;;;;0.53;64.81;102011.88;7405506;19;20014;-66
2022/01/21 11:54:56;;;;;;;10.07;2.30;;;;;;;0.56;65.70;101995.63;7407495;19;20006;-65
2022/01/21 11:57:31;;;;;;;8.40;1.92;;;;;;;0.54;63.14;101994.69;7406222;19;20018;-65
2022/01/21 12:00:16;;;;;;;9.43;1.95;;;;;;;0.64;61.51;101994.22;7401280;19;20015;-65
2022/01/21 12:02:52;;;;;;;12.70;2.03;;;;;;;0.69;62.14;101995.28;7400844;19;20014;-65
2022/01/21 12:05:28;;;;;;;6.82;1.60;;;;;;;0.75;61.88;101986.88;7398976;19;20010;-66
2022/01/21 12:07:58;;;;;;;4.82;1.75;;;;;;;0.58;60.96;101962.97;7398013;19;20031;-65
2022/01/21 12:10:33;;;;;;;11.68;1.95;;;;;;;0.79;61.00;102001.69;7400224;19;20022;-67
2022/01/21 12:13:15;;;;;;;5.38;1.67;;;;;;;0.80;59.78;101991.41;7399625;19;20475;-65
2022/01/21 12:19:19;;;;;;;5.67;1.43;;;;;;;0.87;59.81;101970.97;7396474;19;20074;-65